sensor_id;sensor_type;location;lat;lon;timestamp;P1;durP1;ratioP1;P2;durP2;ratioP2
30743;SDS011;17486;46.738;7.622;2023-04-25T00:01:28;4.18;;;2.67;;
30743;SDS011;17486;46.738;7.622;2023-04-25T00:03:53;3.03;;;2.50;;
30743;SDS011;17486;46.738;7.622;2023-04-25T00:06:19;5.32;;;2.65;;
30743;SDS011;17486;46.738;7.622;2023-04-25T00:08:44;3.67;;;2.42;;
30743;SDS011;17486;46.738;7.622;2023-04-25T00:11:10;3.05;;;2.45;;
30743;SDS011;17486;46.738;7.622;2023-04-25T00:13:35;3.92;;;2.45;;
30743;SDS011;17486;46.738;7.622;2023-04-25T00:16:01;4.28;;;2.30;;
30743;SDS011;17486;46.738;7.622;2023-04-25T00:18:27;5.93;;;2.72;;
30743;SDS011;17486;46.738;7.622;2023-04-25T00:20:58;3.72;;;2.45;;
30743;SDS011;17486;46.738;7.622;2023-04-25T00:23:23;7.10;;;2.55;;
30743;SDS011;17486;46.738;7.622;2023-04-25T00:25:49;3.85;;;2.42;;
30743;SDS011;17486;46.738;7.622;2023-04-25T00:28:15;5.22;;;3.13;;
30743;SDS011;17486;46.738;7.622;2023-04-25T00:30:41;6.45;;;2.38;;
30743;SDS011;17486;46.738;7.622;2023-04-25T00:33:07;4.43;;;2.63;;
30743;SDS011;17486;46.738;7.622;2023-04-25T00:35:33;6.30;;;2.47;;
30743;SDS011;17486;46.738;7.622;2023-04-25T00:37:59;6.97;;;2.78;;
30743;SDS011;17486;46.738;7.622;2023-04-25T00:40:25;4.82;;;2.80;;
30743;SDS011;17486;46.738;7.622;2023-04-25T00:42:54;3.72;;;2.70;;
30743;SDS011;17486;46.738;7.622;2023-04-25T00:45:19;5.25;;;2.60;;
30743;SDS011;17486;46.738;7.622;2023-04-25T00:47:45;5.30;;;2.38;;
30743;SDS011;17486;46.738;7.622;2023-04-25T00:50:12;3.80;;;2.22;;
30743;SDS011;17486;46.738;7.622;2023-04-25T00:52:38;4.38;;;2.22;;
30743;SDS011;17486;46.738;7.622;2023-04-25T00:55:06;4.07;;;2.47;;
30743;SDS011;17486;46.738;7.622;2023-04-25T00:57:33;6.35;;;2.42;;
30743;SDS011;17486;46.738;7.622;2023-04-25T00:59:58;4.38;;;2.22;;
30743;SDS011;17486;46.738;7.622;2023-04-25T01:02:24;5.95;;;2.75;;
30743;SDS011;17486;46.738;7.622;2023-04-25T01:04:50;5.78;;;2.50;;
30743;SDS011;17486;46.738;7.622;2023-04-25T01:07:16;5.13;;;2.17;;
30743;SDS011;17486;46.738;7.622;2023-04-25T01:09:41;7.20;;;2.72;;
30743;SDS011;17486;46.738;7.622;2023-04-25T01:12:06;4.00;;;2.20;;
30743;SDS011;17486;46.738;7.622;2023-04-25T01:14:32;2.80;;;2.25;;
30743;SDS011;17486;46.738;7.622;2023-04-25T01:16:58;4.10;;;2.42;;
30743;SDS011;17486;46.738;7.622;2023-04-25T01:19:23;4.68;;;2.72;;
30743;SDS011;17486;46.738;7.622;2023-04-25T01:21:50;6.35;;;2.90;;
30743;SDS011;17486;46.738;7.622;2023-04-25T01:24:15;7.22;;;2.70;;
30743;SDS011;17486;46.738;7.622;2023-04-25T01:26:41;4.80;;;2.85;;
30743;SDS011;17486;46.738;7.622;2023-04-25T01:29:14;5.03;;;2.40;;
30743;SDS011;17486;46.738;7.622;2023-04-25T01:31:41;3.90;;;2.20;;
30743;SDS011;17486;46.738;7.622;2023-04-25T01:34:07;5.88;;;2.60;;
30743;SDS011;17486;46.738;7.622;2023-04-25T01:36:33;5.95;;;2.63;;
30743;SDS011;17486;46.738;7.622;2023-04-25T01:38:59;4.00;;;2.30;;
30743;SDS011;17486;46.738;7.622;2023-04-25T01:41:25;3.35;;;1.88;;
30743;SDS011;17486;46.738;7.622;2023-04-25T01:43:51;6.75;;;2.63;;
30743;SDS011;17486;46.738;7.622;2023-04-25T01:46:17;4.90;;;2.55;;
30743;SDS011;17486;46.738;7.622;2023-04-25T01:48:42;4.72;;;2.55;;
30743;SDS011;17486;46.738;7.622;2023-04-25T01:51:08;3.75;;;2.30;;
30743;SDS011;17486;46.738;7.622;2023-04-25T01:53:33;6.30;;;2.78;;
30743;SDS011;17486;46.738;7.622;2023-04-25T01:55:59;4.50;;;2.47;;
30743;SDS011;17486;46.738;7.622;2023-04-25T01:58:24;7.18;;;2.70;;
30743;SDS011;17486;46.738;7.622;2023-04-25T02:00:49;5.93;;;2.60;;
30743;SDS011;17486;46.738;7.622;2023-04-25T02:03:15;4.20;;;2.97;;
30743;SDS011;17486;46.738;7.622;2023-04-25T02:05:40;6.38;;;2.83;;
30743;SDS011;17486;46.738;7.622;2023-04-25T02:08:06;7.05;;;3.10;;
30743;SDS011;17486;46.738;7.622;2023-04-25T02:10:33;6.60;;;2.55;;
30743;SDS011;17486;46.738;7.622;2023-04-25T02:12:59;4.45;;;2.55;;
30743;SDS011;17486;46.738;7.622;2023-04-25T02:15:25;6.22;;;2.75;;
30743;SDS011;17486;46.738;7.622;2023-04-25T02:17:50;5.90;;;2.72;;
30743;SDS011;17486;46.738;7.622;2023-04-25T02:20:17;5.13;;;2.70;;
30743;SDS011;17486;46.738;7.622;2023-04-25T02:22:45;5.50;;;2.60;;
30743;SDS011;17486;46.738;7.622;2023-04-25T02:25:10;5.32;;;2.63;;
30743;SDS011;17486;46.738;7.622;2023-04-25T02:27:36;3.92;;;2.17;;
30743;SDS011;17486;46.738;7.622;2023-04-25T02:30:02;6.07;;;2.78;;
30743;SDS011;17486;46.738;7.622;2023-04-25T02:32:27;5.47;;;2.10;;
30743;SDS011;17486;46.738;7.622;2023-04-25T02:34:53;4.47;;;2.40;;
30743;SDS011;17486;46.738;7.622;2023-04-25T02:37:19;3.35;;;2.00;;
30743;SDS011;17486;46.738;7.622;2023-04-25T02:39:44;4.18;;;2.10;;
30743;SDS011;17486;46.738;7.622;2023-04-25T02:42:10;3.72;;;2.13;;
30743;SDS011;17486;46.738;7.622;2023-04-25T02:44:35;3.63;;;1.98;;
30743;SDS011;17486;46.738;7.622;2023-04-25T02:47:01;3.83;;;2.05;;
30743;SDS011;17486;46.738;7.622;2023-04-25T02:49:26;3.63;;;1.85;;
30743;SDS011;17486;46.738;7.622;2023-04-25T02:51:51;4.15;;;1.80;;
30743;SDS011;17486;46.738;7.622;2023-04-25T02:54:17;4.80;;;1.90;;
30743;SDS011;17486;46.738;7.622;2023-04-25T02:56:42;4.32;;;1.88;;
30743;SDS011;17486;46.738;7.622;2023-04-25T02:59:08;4.50;;;2.30;;
30743;SDS011;17486;46.738;7.622;2023-04-25T03:01:33;3.47;;;2.08;;
30743;SDS011;17486;46.738;7.622;2023-04-25T03:03:58;3.53;;;1.88;;
30743;SDS011;17486;46.738;7.622;2023-04-25T03:06:24;7.35;;;1.85;;
30743;SDS011;17486;46.738;7.622;2023-04-25T03:08:49;4.93;;;2.05;;
30743;SDS011;17486;46.738;7.622;2023-04-25T03:11:14;5.55;;;2.00;;
30743;SDS011;17486;46.738;7.622;2023-04-25T03:13:40;3.55;;;1.95;;
30743;SDS011;17486;46.738;7.622;2023-04-25T03:16:05;3.83;;;1.95;;
30743;SDS011;17486;46.738;7.622;2023-04-25T03:18:31;4.13;;;1.80;;
30743;SDS011;17486;46.738;7.622;2023-04-25T03:20:56;5.07;;;2.20;;
30743;SDS011;17486;46.738;7.622;2023-04-25T03:23:21;4.30;;;2.05;;
30743;SDS011;17486;46.738;7.622;2023-04-25T03:25:47;3.00;;;1.80;;
30743;SDS011;17486;46.738;7.622;2023-04-25T03:28:13;4.38;;;1.92;;
30743;SDS011;17486;46.738;7.622;2023-04-25T03:30:39;3.10;;;1.83;;
30743;SDS011;17486;46.738;7.622;2023-04-25T03:33:05;4.18;;;1.77;;
30743;SDS011;17486;46.738;7.622;2023-04-25T03:35:30;3.85;;;1.98;;
30743;SDS011;17486;46.738;7.622;2023-04-25T03:37:56;4.55;;;2.42;;
30743;SDS011;17486;46.738;7.622;2023-04-25T03:40:21;6.82;;;3.88;;
30743;SDS011;17486;46.738;7.622;2023-04-25T03:42:46;5.78;;;3.92;;
30743;SDS011;17486;46.738;7.622;2023-04-25T03:45:12;4.75;;;3.10;;
30743;SDS011;17486;46.738;7.622;2023-04-25T03:47:37;3.28;;;2.40;;
30743;SDS011;17486;46.738;7.622;2023-04-25T03:50:02;5.13;;;3.10;;
30743;SDS011;17486;46.738;7.622;2023-04-25T03:52:28;8.07;;;4.60;;
30743;SDS011;17486;46.738;7.622;2023-04-25T03:54:53;6.30;;;4.00;;
30743;SDS011;17486;46.738;7.622;2023-04-25T03:57:19;6.97;;;3.67;;
30743;SDS011;17486;46.738;7.622;2023-04-25T03:59:44;7.90;;;3.55;;
30743;SDS011;17486;46.738;7.622;2023-04-25T04:02:10;4.78;;;2.25;;
30743;SDS011;17486;46.738;7.622;2023-04-25T04:04:35;5.30;;;3.05;;
30743;SDS011;17486;46.738;7.622;2023-04-25T04:07:01;8.98;;;2.80;;
30743;SDS011;17486;46.738;7.622;2023-04-25T04:09:27;4.88;;;2.30;;
30743;SDS011;17486;46.738;7.622;2023-04-25T04:11:52;3.38;;;2.40;;
30743;SDS011;17486;46.738;7.622;2023-04-25T04:14:18;4.38;;;2.45;;
30743;SDS011;17486;46.738;7.622;2023-04-25T04:16:43;2.20;;;1.60;;
30743;SDS011;17486;46.738;7.622;2023-04-25T04:19:08;4.43;;;2.30;;
30743;SDS011;17486;46.738;7.622;2023-04-25T04:21:34;6.90;;;2.28;;
30743;SDS011;17486;46.738;7.622;2023-04-25T04:23:59;2.72;;;1.80;;
30743;SDS011;17486;46.738;7.622;2023-04-25T04:26:25;3.78;;;2.22;;
30743;SDS011;17486;46.738;7.622;2023-04-25T04:28:51;3.17;;;1.77;;
30743;SDS011;17486;46.738;7.622;2023-04-25T04:31:16;3.28;;;1.90;;
30743;SDS011;17486;46.738;7.622;2023-04-25T04:33:44;5.55;;;1.88;;
30743;SDS011;17486;46.738;7.622;2023-04-25T04:36:10;4.85;;;2.13;;
30743;SDS011;17486;46.738;7.622;2023-04-25T04:38:35;2.90;;;1.85;;
30743;SDS011;17486;46.738;7.622;2023-04-25T04:41:01;5.53;;;2.03;;
30743;SDS011;17486;46.738;7.622;2023-04-25T04:43:27;3.03;;;1.80;;
30743;SDS011;17486;46.738;7.622;2023-04-25T04:45:53;2.78;;;1.60;;
30743;SDS011;17486;46.738;7.622;2023-04-25T04:48:21;3.30;;;1.70;;
30743;SDS011;17486;46.738;7.622;2023-04-25T04:50:46;3.75;;;2.08;;
30743;SDS011;17486;46.738;7.622;2023-04-25T04:53:12;5.07;;;2.15;;
30743;SDS011;17486;46.738;7.622;2023-04-25T04:55:38;4.88;;;2.08;;
30743;SDS011;17486;46.738;7.622;2023-04-25T04:58:03;6.78;;;2.10;;
30743;SDS011;17486;46.738;7.622;2023-04-25T05:00:28;3.65;;;1.90;;
30743;SDS011;17486;46.738;7.622;2023-04-25T05:02:54;3.50;;;1.88;;
30743;SDS011;17486;46.738;7.622;2023-04-25T05:05:23;4.43;;;1.83;;
30743;SDS011;17486;46.738;7.622;2023-04-25T05:07:48;4.18;;;1.70;;
30743;SDS011;17486;46.738;7.622;2023-04-25T05:10:13;2.58;;;1.85;;
30743;SDS011;17486;46.738;7.622;2023-04-25T05:12:39;4.25;;;1.73;;
30743;SDS011;17486;46.738;7.622;2023-04-25T05:15:04;2.85;;;1.90;;
30743;SDS011;17486;46.738;7.622;2023-04-25T05:17:30;3.28;;;1.60;;
30743;SDS011;17486;46.738;7.622;2023-04-25T05:19:55;3.33;;;1.75;;
30743;SDS011;17486;46.738;7.622;2023-04-25T05:22:21;3.88;;;1.48;;
30743;SDS011;17486;46.738;7.622;2023-04-25T05:24:47;2.92;;;1.75;;
30743;SDS011;17486;46.738;7.622;2023-04-25T05:27:13;2.80;;;1.45;;
30743;SDS011;17486;46.738;7.622;2023-04-25T05:29:38;2.00;;;1.73;;
30743;SDS011;17486;46.738;7.622;2023-04-25T05:32:04;4.07;;;1.90;;
30743;SDS011;17486;46.738;7.622;2023-04-25T05:34:30;3.42;;;1.77;;
30743;SDS011;17486;46.738;7.622;2023-04-25T05:36:55;3.08;;;1.90;;
30743;SDS011;17486;46.738;7.622;2023-04-25T05:39:21;2.40;;;1.70;;
30743;SDS011;17486;46.738;7.622;2023-04-25T05:41:46;2.60;;;1.75;;
30743;SDS011;17486;46.738;7.622;2023-04-25T05:44:11;4.25;;;2.10;;
30743;SDS011;17486;46.738;7.622;2023-04-25T05:46:37;3.00;;;1.90;;
30743;SDS011;17486;46.738;7.622;2023-04-25T05:49:02;3.15;;;1.90;;
30743;SDS011;17486;46.738;7.622;2023-04-25T05:51:28;2.60;;;1.83;;
30743;SDS011;17486;46.738;7.622;2023-04-25T05:53:53;2.92;;;2.00;;
30743;SDS011;17486;46.738;7.622;2023-04-25T05:56:18;2.42;;;1.98;;
30743;SDS011;17486;46.738;7.622;2023-04-25T05:58:44;3.25;;;1.48;;
30743;SDS011;17486;46.738;7.622;2023-04-25T06:01:09;3.50;;;1.90;;
30743;SDS011;17486;46.738;7.622;2023-04-25T06:03:34;3.35;;;2.00;;
30743;SDS011;17486;46.738;7.622;2023-04-25T06:06:00;3.63;;;1.90;;
30743;SDS011;17486;46.738;7.622;2023-04-25T06:08:25;3.95;;;1.73;;
30743;SDS011;17486;46.738;7.622;2023-04-25T06:10:51;2.95;;;1.98;;
30743;SDS011;17486;46.738;7.622;2023-04-25T06:13:16;3.30;;;1.90;;
30743;SDS011;17486;46.738;7.622;2023-04-25T06:15:41;3.80;;;2.15;;
30743;SDS011;17486;46.738;7.622;2023-04-25T06:18:07;3.40;;;2.05;;
30743;SDS011;17486;46.738;7.622;2023-04-25T06:20:33;2.47;;;1.70;;
30743;SDS011;17486;46.738;7.622;2023-04-25T06:22:58;4.15;;;1.90;;
30743;SDS011;17486;46.738;7.622;2023-04-25T06:25:24;3.72;;;1.88;;
30743;SDS011;17486;46.738;7.622;2023-04-25T06:27:49;3.03;;;1.52;;
30743;SDS011;17486;46.738;7.622;2023-04-25T06:30:14;2.50;;;2.03;;
30743;SDS011;17486;46.738;7.622;2023-04-25T06:32:41;2.00;;;1.80;;
30743;SDS011;17486;46.738;7.622;2023-04-25T06:35:06;3.10;;;2.35;;
30743;SDS011;17486;46.738;7.622;2023-04-25T06:37:32;2.30;;;2.10;;
30743;SDS011;17486;46.738;7.622;2023-04-25T06:39:57;4.45;;;2.90;;
30743;SDS011;17486;46.738;7.622;2023-04-25T06:42:23;4.07;;;2.67;;
30743;SDS011;17486;46.738;7.622;2023-04-25T06:44:48;4.95;;;3.38;;
30743;SDS011;17486;46.738;7.622;2023-04-25T06:47:14;4.50;;;3.75;;
30743;SDS011;17486;46.738;7.622;2023-04-25T06:49:40;7.07;;;4.38;;
30743;SDS011;17486;46.738;7.622;2023-04-25T06:52:05;7.00;;;3.45;;
30743;SDS011;17486;46.738;7.622;2023-04-25T06:54:30;3.75;;;2.85;;
30743;SDS011;17486;46.738;7.622;2023-04-25T06:56:56;3.97;;;2.40;;
30743;SDS011;17486;46.738;7.622;2023-04-25T06:59:21;2.22;;;2.03;;
30743;SDS011;17486;46.738;7.622;2023-04-25T07:01:47;2.38;;;2.17;;
30743;SDS011;17486;46.738;7.622;2023-04-25T07:04:12;2.97;;;2.05;;
30743;SDS011;17486;46.738;7.622;2023-04-25T07:06:38;2.70;;;1.92;;
30743;SDS011;17486;46.738;7.622;2023-04-25T07:09:07;4.10;;;2.53;;
30743;SDS011;17486;46.738;7.622;2023-04-25T07:11:34;2.42;;;2.13;;
30743;SDS011;17486;46.738;7.622;2023-04-25T07:14:00;3.40;;;2.17;;
30743;SDS011;17486;46.738;7.622;2023-04-25T07:16:26;2.75;;;2.00;;
30743;SDS011;17486;46.738;7.622;2023-04-25T07:18:51;2.00;;;1.77;;
30743;SDS011;17486;46.738;7.622;2023-04-25T07:21:16;2.33;;;1.90;;
30743;SDS011;17486;46.738;7.622;2023-04-25T07:23:42;3.03;;;1.95;;
30743;SDS011;17486;46.738;7.622;2023-04-25T07:26:07;2.53;;;1.80;;
30743;SDS011;17486;46.738;7.622;2023-04-25T07:28:33;2.47;;;1.98;;
30743;SDS011;17486;46.738;7.622;2023-04-25T07:30:58;3.80;;;2.50;;
30743;SDS011;17486;46.738;7.622;2023-04-25T07:33:23;2.50;;;2.05;;
30743;SDS011;17486;46.738;7.622;2023-04-25T07:35:49;4.72;;;2.10;;
30743;SDS011;17486;46.738;7.622;2023-04-25T07:38:15;2.70;;;1.80;;
30743;SDS011;17486;46.738;7.622;2023-04-25T07:40:40;3.45;;;1.90;;
30743;SDS011;17486;46.738;7.622;2023-04-25T07:43:06;2.63;;;1.88;;
30743;SDS011;17486;46.738;7.622;2023-04-25T07:45:31;3.42;;;1.95;;
30743;SDS011;17486;46.738;7.622;2023-04-25T07:47:57;2.83;;;1.90;;
30743;SDS011;17486;46.738;7.622;2023-04-25T07:50:22;2.80;;;1.40;;
30743;SDS011;17486;46.738;7.622;2023-04-25T07:52:47;2.95;;;1.77;;
30743;SDS011;17486;46.738;7.622;2023-04-25T07:55:13;1.60;;;1.50;;
30743;SDS011;17486;46.738;7.622;2023-04-25T07:57:38;2.22;;;1.70;;
30743;SDS011;17486;46.738;7.622;2023-04-25T08:00:04;1.55;;;1.40;;
30743;SDS011;17486;46.738;7.622;2023-04-25T08:02:34;2.15;;;1.48;;
30743;SDS011;17486;46.738;7.622;2023-04-25T08:05:00;5.38;;;1.83;;
30743;SDS011;17486;46.738;7.622;2023-04-25T08:07:25;2.92;;;2.10;;
30743;SDS011;17486;46.738;7.622;2023-04-25T08:09:51;2.47;;;1.75;;
30743;SDS011;17486;46.738;7.622;2023-04-25T08:12:17;2.50;;;1.92;;
30743;SDS011;17486;46.738;7.622;2023-04-25T08:14:42;1.85;;;1.67;;
30743;SDS011;17486;46.738;7.622;2023-04-25T08:17:08;2.25;;;2.00;;
30743;SDS011;17486;46.738;7.622;2023-04-25T08:19:34;2.53;;;1.73;;
30743;SDS011;17486;46.738;7.622;2023-04-25T08:21:59;2.08;;;1.60;;
30743;SDS011;17486;46.738;7.622;2023-04-25T08:24:25;2.90;;;1.92;;
30743;SDS011;17486;46.738;7.622;2023-04-25T08:26:51;1.45;;;1.35;;
30743;SDS011;17486;46.738;7.622;2023-04-25T08:29:16;2.05;;;1.73;;
30743;SDS011;17486;46.738;7.622;2023-04-25T08:31:42;2.58;;;1.70;;
30743;SDS011;17486;46.738;7.622;2023-04-25T08:34:07;2.15;;;1.60;;
30743;SDS011;17486;46.738;7.622;2023-04-25T08:36:32;2.17;;;1.52;;
30743;SDS011;17486;46.738;7.622;2023-04-25T08:38:58;2.47;;;1.60;;
30743;SDS011;17486;46.738;7.622;2023-04-25T08:41:23;3.03;;;1.80;;
30743;SDS011;17486;46.738;7.622;2023-04-25T08:43:50;2.58;;;1.75;;
30743;SDS011;17486;46.738;7.622;2023-04-25T08:46:19;2.35;;;1.50;;
30743;SDS011;17486;46.738;7.622;2023-04-25T08:48:45;3.25;;;1.92;;
30743;SDS011;17486;46.738;7.622;2023-04-25T08:51:15;2.20;;;1.67;;
30743;SDS011;17486;46.738;7.622;2023-04-25T08:53:50;3.53;;;1.60;;
30743;SDS011;17486;46.738;7.622;2023-04-25T08:56:17;2.55;;;1.52;;
30743;SDS011;17486;46.738;7.622;2023-04-25T08:58:45;1.58;;;1.48;;
30743;SDS011;17486;46.738;7.622;2023-04-25T09:01:13;2.55;;;1.73;;
30743;SDS011;17486;46.738;7.622;2023-04-25T09:03:39;1.90;;;1.67;;
30743;SDS011;17486;46.738;7.622;2023-04-25T09:06:04;2.47;;;1.30;;
30743;SDS011;17486;46.738;7.622;2023-04-25T09:08:30;2.05;;;1.70;;
30743;SDS011;17486;46.738;7.622;2023-04-25T09:10:55;2.97;;;1.88;;
30743;SDS011;17486;46.738;7.622;2023-04-25T09:13:25;3.25;;;1.98;;
30743;SDS011;17486;46.738;7.622;2023-04-25T09:15:54;3.25;;;1.85;;
30743;SDS011;17486;46.738;7.622;2023-04-25T09:18:25;2.42;;;1.98;;
30743;SDS011;17486;46.738;7.622;2023-04-25T09:20:55;4.10;;;2.00;;
30743;SDS011;17486;46.738;7.622;2023-04-25T09:23:22;3.78;;;2.25;;
30743;SDS011;17486;46.738;7.622;2023-04-25T09:25:49;6.88;;;2.42;;
30743;SDS011;17486;46.738;7.622;2023-04-25T09:28:16;4.63;;;2.83;;
30743;SDS011;17486;46.738;7.622;2023-04-25T09:30:41;3.08;;;2.40;;
30743;SDS011;17486;46.738;7.622;2023-04-25T09:33:08;5.55;;;3.15;;
30743;SDS011;17486;46.738;7.622;2023-04-25T09:38:12;7.22;;;3.30;;
30743;SDS011;17486;46.738;7.622;2023-04-25T09:40:42;3.63;;;2.85;;
30743;SDS011;17486;46.738;7.622;2023-04-25T09:43:22;7.97;;;3.50;;
30743;SDS011;17486;46.738;7.622;2023-04-25T09:45:48;4.45;;;2.88;;
30743;SDS011;17486;46.738;7.622;2023-04-25T09:48:20;3.78;;;2.28;;
30743;SDS011;17486;46.738;7.622;2023-04-25T09:53:41;1.15;;;0.70;;
30743;SDS011;17486;46.738;7.622;2023-04-25T09:56:08;0.40;;;0.40;;
30743;SDS011;17486;46.738;7.622;2023-04-25T09:58:36;1.00;;;0.50;;
30743;SDS011;17486;46.738;7.622;2023-04-25T10:01:03;0.40;;;0.40;;
30743;SDS011;17486;46.738;7.622;2023-04-25T10:03:31;0.22;;;0.22;;
30743;SDS011;17486;46.738;7.622;2023-04-25T10:06:01;0.20;;;0.20;;
30743;SDS011;17486;46.738;7.622;2023-04-25T10:08:33;0.73;;;0.30;;
30743;SDS011;17486;46.738;7.622;2023-04-25T10:11:02;0.65;;;0.30;;
30743;SDS011;17486;46.738;7.622;2023-04-25T10:13:29;0.85;;;0.35;;
30743;SDS011;17486;46.738;7.622;2023-04-25T10:15:59;0.40;;;0.40;;
30743;SDS011;17486;46.738;7.622;2023-04-25T10:18:29;1.50;;;0.88;;
30743;SDS011;17486;46.738;7.622;2023-04-25T10:20:56;0.75;;;0.75;;
30743;SDS011;17486;46.738;7.622;2023-04-25T10:23:23;2.17;;;1.35;;
30743;SDS011;17486;46.738;7.622;2023-04-25T10:25:50;2.15;;;1.98;;
30743;SDS011;17486;46.738;7.622;2023-04-25T10:28:17;1.98;;;1.63;;
30743;SDS011;17486;46.738;7.622;2023-04-25T10:33:29;1.55;;;1.02;;
30743;SDS011;17486;46.738;7.622;2023-04-25T10:35:59;0.50;;;0.50;;
30743;SDS011;17486;46.738;7.622;2023-04-25T10:38:34;0.40;;;0.35;;
30743;SDS011;17486;46.738;7.622;2023-04-25T10:41:03;0.70;;;0.70;;
30743;SDS011;17486;46.738;7.622;2023-04-25T10:43:42;5.05;;;4.15;;
30743;SDS011;17486;46.738;7.622;2023-04-25T10:46:22;2.33;;;2.13;;
30743;SDS011;17486;46.738;7.622;2023-04-25T10:48:52;1.33;;;1.23;;
30743;SDS011;17486;46.738;7.622;2023-04-25T10:51:21;0.87;;;0.80;;
30743;SDS011;17486;46.738;7.622;2023-04-25T10:54:07;1.00;;;0.60;;
30743;SDS011;17486;46.738;7.622;2023-04-25T10:59:14;1.15;;;0.52;;
30743;SDS011;17486;46.738;7.622;2023-04-25T11:01:47;0.38;;;0.38;;
30743;SDS011;17486;46.738;7.622;2023-04-25T11:04:20;0.40;;;0.40;;
30743;SDS011;17486;46.738;7.622;2023-04-25T11:09:23;1.15;;;0.50;;
30743;SDS011;17486;46.738;7.622;2023-04-25T11:11:58;0.30;;;0.30;;
30743;SDS011;17486;46.738;7.622;2023-04-25T11:14:25;0.40;;;0.40;;
30743;SDS011;17486;46.738;7.622;2023-04-25T11:16:53;0.95;;;0.43;;
30743;SDS011;17486;46.738;7.622;2023-04-25T11:19:23;0.45;;;0.43;;
30743;SDS011;17486;46.738;7.622;2023-04-25T11:21:49;0.50;;;0.40;;
30743;SDS011;17486;46.738;7.622;2023-04-25T11:24:15;0.30;;;0.30;;
30743;SDS011;17486;46.738;7.622;2023-04-25T11:26:42;0.35;;;0.35;;
30743;SDS011;17486;46.738;7.622;2023-04-25T11:29:08;0.68;;;0.65;;
30743;SDS011;17486;46.738;7.622;2023-04-25T11:31:34;1.65;;;1.23;;
30743;SDS011;17486;46.738;7.622;2023-04-25T11:33:59;1.38;;;1.25;;
30743;SDS011;17486;46.738;7.622;2023-04-25T11:36:25;1.70;;;1.60;;
30743;SDS011;17486;46.738;7.622;2023-04-25T11:38:51;1.60;;;1.50;;
30743;SDS011;17486;46.738;7.622;2023-04-25T11:41:17;2.05;;;1.40;;
30743;SDS011;17486;46.738;7.622;2023-04-25T11:43:43;1.73;;;1.10;;
30743;SDS011;17486;46.738;7.622;2023-04-25T11:46:09;1.30;;;1.20;;
30743;SDS011;17486;46.738;7.622;2023-04-25T11:48:37;1.40;;;1.02;;
30743;SDS011;17486;46.738;7.622;2023-04-25T11:51:06;1.85;;;1.50;;
30743;SDS011;17486;46.738;7.622;2023-04-25T11:53:31;2.03;;;1.60;;
30743;SDS011;17486;46.738;7.622;2023-04-25T11:55:57;1.85;;;1.45;;
30743;SDS011;17486;46.738;7.622;2023-04-25T11:58:22;1.60;;;1.38;;
30743;SDS011;17486;46.738;7.622;2023-04-25T12:00:47;1.83;;;1.50;;
30743;SDS011;17486;46.738;7.622;2023-04-25T12:03:13;3.08;;;1.25;;
30743;SDS011;17486;46.738;7.622;2023-04-25T12:05:38;2.03;;;1.48;;
30743;SDS011;17486;46.738;7.622;2023-04-25T12:08:14;1.10;;;1.00;;
30743;SDS011;17486;46.738;7.622;2023-04-25T12:10:41;1.33;;;1.13;;
30743;SDS011;17486;46.738;7.622;2023-04-25T12:13:17;1.50;;;1.00;;
30743;SDS011;17486;46.738;7.622;2023-04-25T12:15:50;0.88;;;0.88;;
30743;SDS011;17486;46.738;7.622;2023-04-25T12:18:18;1.00;;;0.80;;
30743;SDS011;17486;46.738;7.622;2023-04-25T12:20:45;0.88;;;0.85;;
30743;SDS011;17486;46.738;7.622;2023-04-25T12:23:11;1.95;;;0.90;;
30743;SDS011;17486;46.738;7.622;2023-04-25T12:25:38;2.17;;;1.27;;
30743;SDS011;17486;46.738;7.622;2023-04-25T12:30:58;1.75;;;1.35;;
30743;SDS011;17486;46.738;7.622;2023-04-25T12:33:25;1.83;;;1.45;;
30743;SDS011;17486;46.738;7.622;2023-04-25T12:35:52;1.88;;;1.58;;
30743;SDS011;17486;46.738;7.622;2023-04-25T12:38:27;2.63;;;1.73;;
30743;SDS011;17486;46.738;7.622;2023-04-25T12:40:59;1.50;;;1.40;;
30743;SDS011;17486;46.738;7.622;2023-04-25T12:43:24;2.63;;;1.25;;
30743;SDS011;17486;46.738;7.622;2023-04-25T12:45:53;1.23;;;1.13;;
30743;SDS011;17486;46.738;7.622;2023-04-25T12:48:20;2.38;;;1.15;;
30743;SDS011;17486;46.738;7.622;2023-04-25T12:50:46;0.90;;;0.90;;
30743;SDS011;17486;46.738;7.622;2023-04-25T12:53:18;1.52;;;1.23;;
30743;SDS011;17486;46.738;7.622;2023-04-25T12:55:45;2.20;;;1.30;;
30743;SDS011;17486;46.738;7.622;2023-04-25T12:58:11;1.20;;;1.10;;
30743;SDS011;17486;46.738;7.622;2023-04-25T13:00:37;1.40;;;1.30;;
30743;SDS011;17486;46.738;7.622;2023-04-25T13:03:03;1.70;;;1.02;;
30743;SDS011;17486;46.738;7.622;2023-04-25T13:05:29;1.55;;;1.20;;
30743;SDS011;17486;46.738;7.622;2023-04-25T13:07:55;1.48;;;1.02;;
30743;SDS011;17486;46.738;7.622;2023-04-25T13:10:20;1.35;;;0.70;;
30743;SDS011;17486;46.738;7.622;2023-04-25T13:12:46;0.52;;;0.52;;
30743;SDS011;17486;46.738;7.622;2023-04-25T13:15:11;0.90;;;0.63;;
30743;SDS011;17486;46.738;7.622;2023-04-25T13:17:37;2.00;;;0.80;;
30743;SDS011;17486;46.738;7.622;2023-04-25T13:20:06;1.25;;;0.77;;
30743;SDS011;17486;46.738;7.622;2023-04-25T13:22:34;0.63;;;0.60;;
30743;SDS011;17486;46.738;7.622;2023-04-25T13:25:01;0.90;;;0.55;;
30743;SDS011;17486;46.738;7.622;2023-04-25T13:27:27;0.52;;;0.52;;
30743;SDS011;17486;46.738;7.622;2023-04-25T13:29:52;0.60;;;0.60;;
30743;SDS011;17486;46.738;7.622;2023-04-25T13:32:18;0.65;;;0.57;;
30743;SDS011;17486;46.738;7.622;2023-04-25T13:34:43;1.35;;;0.90;;
30743;SDS011;17486;46.738;7.622;2023-04-25T13:37:08;1.30;;;0.80;;
30743;SDS011;17486;46.738;7.622;2023-04-25T13:39:34;0.75;;;0.70;;
30743;SDS011;17486;46.738;7.622;2023-04-25T13:41:59;1.65;;;0.73;;
30743;SDS011;17486;46.738;7.622;2023-04-25T13:44:25;1.67;;;0.88;;
30743;SDS011;17486;46.738;7.622;2023-04-25T13:46:50;1.13;;;0.80;;
30743;SDS011;17486;46.738;7.622;2023-04-25T13:49:16;0.80;;;0.80;;
30743;SDS011;17486;46.738;7.622;2023-04-25T13:51:41;0.85;;;0.85;;
30743;SDS011;17486;46.738;7.622;2023-04-25T13:54:07;0.80;;;0.80;;
30743;SDS011;17486;46.738;7.622;2023-04-25T13:56:32;0.75;;;0.75;;
30743;SDS011;17486;46.738;7.622;2023-04-25T13:58:58;0.60;;;0.60;;
30743;SDS011;17486;46.738;7.622;2023-04-25T14:01:23;0.63;;;0.63;;
30743;SDS011;17486;46.738;7.622;2023-04-25T14:03:48;1.05;;;0.95;;
30743;SDS011;17486;46.738;7.622;2023-04-25T14:06:14;0.80;;;0.80;;
30743;SDS011;17486;46.738;7.622;2023-04-25T14:08:46;1.73;;;1.00;;
30743;SDS011;17486;46.738;7.622;2023-04-25T14:11:11;1.00;;;0.90;;
30743;SDS011;17486;46.738;7.622;2023-04-25T14:13:37;1.00;;;0.70;;
30743;SDS011;17486;46.738;7.622;2023-04-25T14:16:02;1.20;;;0.90;;
30743;SDS011;17486;46.738;7.622;2023-04-25T14:18:28;0.55;;;0.55;;
30743;SDS011;17486;46.738;7.622;2023-04-25T14:20:53;1.20;;;0.70;;
30743;SDS011;17486;46.738;7.622;2023-04-25T14:23:18;1.80;;;0.80;;
30743;SDS011;17486;46.738;7.622;2023-04-25T14:25:44;0.73;;;0.70;;
30743;SDS011;17486;46.738;7.622;2023-04-25T14:28:10;1.20;;;0.60;;
30743;SDS011;17486;46.738;7.622;2023-04-25T14:30:35;0.63;;;0.63;;
30743;SDS011;17486;46.738;7.622;2023-04-25T14:33:00;0.60;;;0.60;;
30743;SDS011;17486;46.738;7.622;2023-04-25T14:35:26;0.70;;;0.70;;
30743;SDS011;17486;46.738;7.622;2023-04-25T14:37:52;0.80;;;0.60;;
30743;SDS011;17486;46.738;7.622;2023-04-25T14:40:18;0.93;;;0.80;;
30743;SDS011;17486;46.738;7.622;2023-04-25T14:42:47;2.05;;;0.80;;
30743;SDS011;17486;46.738;7.622;2023-04-25T14:45:12;0.77;;;0.77;;
30743;SDS011;17486;46.738;7.622;2023-04-25T14:47:37;1.23;;;0.90;;
30743;SDS011;17486;46.738;7.622;2023-04-25T14:50:03;0.85;;;0.70;;
30743;SDS011;17486;46.738;7.622;2023-04-25T14:52:30;0.47;;;0.47;;
30743;SDS011;17486;46.738;7.622;2023-04-25T14:54:56;1.55;;;0.70;;
30743;SDS011;17486;46.738;7.622;2023-04-25T14:57:21;1.20;;;1.00;;
30743;SDS011;17486;46.738;7.622;2023-04-25T14:59:46;0.70;;;0.70;;